首页
METAR-TAF:

METAR-TAF

机场 :

Thomaston-Upson County Airport

Thomaston, 喬治亞, 美国

纬度: 32-57-18N, 经度: 084-15-52W, 海拔: 243米

当前天气观测

该预报发布于19分钟前的11:15 UTC
静风
温度 21°C
湿度 56%
气压 1022 hPa
能見度: 16.1公里
散云层高于4400英尺
散云层高于7000英尺
阴天层高于8000英尺

METAR: KOPN 191115Z AUTO 00000KT 10SM SCT044 SCT070 OVC080 21/12 A3018 RMK AO2

时间: 07:34 (11:34 UTC)


TAF: 丢失

超过4000个机场的气象观测和天气预报(METAR&TAF报告)。

可查询的气象台以黄色和红色小点在地图上表示。

将鼠标移到小点上方,可查看气象台名称。

然后点击查看天气观测和预报。

如需切换地图:点击带黑十字的绿色按钮放大地图;点击带横线的绿色按钮缩小地图;或者点击绿色箭头查看邻近地区的地图。


METAR-TAF: